createdAt,value
2018-11-13T00:00:30.123Z,1015.30
2018-11-13T00:01:30.094Z,1015.35
2018-11-13T00:02:30.066Z,1015.28
2018-11-13T00:03:30.037Z,1015.31
2018-11-13T00:04:30.012Z,1015.29
2018-11-13T00:05:29.978Z,1015.33
2018-11-13T00:06:29.951Z,1015.36
2018-11-13T00:07:29.921Z,1015.41
2018-11-13T00:08:29.893Z,1015.45
2018-11-13T00:09:29.867Z,1015.46
2018-11-13T00:10:29.835Z,1015.47
2018-11-13T00:11:29.859Z,1015.48
2018-11-13T00:12:29.786Z,1015.52
2018-11-13T00:13:29.749Z,1015.55
2018-11-13T00:14:29.721Z,1015.55
2018-11-13T00:15:29.698Z,1015.56
2018-11-13T00:16:29.663Z,1015.61
2018-11-13T00:17:29.634Z,1015.62
2018-11-13T00:18:29.606Z,1015.68
2018-11-13T00:19:29.576Z,1015.69
2018-11-13T00:20:29.549Z,1015.72
2018-11-13T00:21:29.520Z,1015.70
2018-11-13T00:22:29.491Z,1015.75
2018-11-13T00:23:29.465Z,1015.71
2018-11-13T00:24:29.434Z,1015.88
2018-11-13T00:25:29.405Z,1015.77
2018-11-13T00:26:29.381Z,1015.84
2018-11-13T00:27:29.365Z,1015.94
2018-11-13T00:28:29.392Z,1015.92
2018-11-13T00:29:29.374Z,1015.91
2018-11-13T00:30:29.261Z,1015.93
2018-11-13T00:31:29.237Z,1015.86
2018-11-13T00:32:29.208Z,1015.98
2018-11-13T00:33:29.180Z,1015.92
2018-11-13T00:34:29.149Z,1015.77
2018-11-13T00:35:29.120Z,1015.83
2018-11-13T00:36:29.089Z,1015.79
2018-11-13T00:37:29.063Z,1015.88
2018-11-13T00:38:29.031Z,1016.00
2018-11-13T00:39:29.003Z,1016.01
2018-11-13T00:40:28.981Z,1015.98
2018-11-13T00:41:28.945Z,1015.95
2018-11-13T00:42:28.915Z,1016.03
2018-11-13T00:43:28.887Z,1015.95
2018-11-13T00:44:28.858Z,1015.97
2018-11-13T00:45:28.859Z,1016.01
2018-11-13T00:46:28.801Z,1015.93
2018-11-13T00:47:28.777Z,1016.05
2018-11-13T00:48:29.041Z,1015.99
2018-11-13T00:49:28.715Z,1015.98
2018-11-13T00:50:28.715Z,1015.89
2018-11-13T00:51:28.657Z,1015.97
2018-11-13T00:52:28.628Z,1015.93
2018-11-13T00:53:28.604Z,1015.94
2018-11-13T00:54:28.571Z,1015.91
2018-11-13T00:55:28.542Z,1015.97
2018-11-13T00:56:28.516Z,1015.94
2018-11-13T00:57:28.485Z,1015.83
2018-11-13T00:58:28.462Z,1015.82
2018-11-13T00:59:28.496Z,1015.87
2018-11-13T01:00:28.400Z,1015.85
2018-11-13T01:01:28.370Z,1015.93
2018-11-13T01:02:28.341Z,1015.92
2018-11-13T01:03:28.315Z,1015.90
2018-11-13T01:04:28.285Z,1015.96
2018-11-13T01:05:28.352Z,1015.95
2018-11-13T01:06:28.227Z,1016.03
2018-11-13T01:07:28.197Z,1016.12
2018-11-13T01:08:28.170Z,1016.05
2018-11-13T01:09:28.141Z,1016.10
2018-11-13T01:10:28.117Z,1016.04
2018-11-13T01:11:28.082Z,1016.00
2018-11-13T01:12:28.054Z,1016.03
2018-11-13T01:13:28.455Z,1016.08
2018-11-13T01:14:27.996Z,1016.01
2018-11-13T01:15:27.967Z,1016.07
2018-11-13T01:16:27.940Z,1015.99
2018-11-13T01:17:27.941Z,1016.03
2018-11-13T01:18:27.887Z,1015.96
2018-11-13T01:19:27.852Z,1016.00
2018-11-13T01:20:27.823Z,1016.03
2018-11-13T01:21:27.795Z,1016.01
2018-11-13T01:22:27.808Z,1016.02
2018-11-13T01:23:27.744Z,1016.03
2018-11-13T01:24:27.708Z,1016.01
2018-11-13T01:25:27.682Z,1016.04
2018-11-13T01:26:27.657Z,1016.06
2018-11-13T01:27:27.622Z,1016.11
2018-11-13T01:28:27.593Z,1016.11
2018-11-13T01:29:27.565Z,1016.10
2018-11-13T01:30:27.538Z,1016.14
2018-11-13T01:31:27.859Z,1016.07
2018-11-13T01:32:27.481Z,1015.95
2018-11-13T01:33:27.461Z,1016.03
2018-11-13T01:34:27.456Z,1016.04
2018-11-13T01:35:27.392Z,1016.03
2018-11-13T01:36:27.365Z,1016.03
2018-11-13T01:37:27.337Z,1016.06
2018-11-13T01:38:27.307Z,1016.04
2018-11-13T01:39:27.278Z,1016.02
2018-11-13T01:40:27.252Z,1016.02
2018-11-13T01:41:27.221Z,1016.00
2018-11-13T01:42:27.194Z,1016.03
2018-11-13T01:43:27.162Z,1016.03
2018-11-13T01:44:27.135Z,1016.00
2018-11-13T01:45:27.106Z,1015.99
2018-11-13T01:46:27.081Z,1015.94
2018-11-13T01:47:27.049Z,1015.93
2018-11-13T01:48:27.019Z,1015.93
2018-11-13T01:49:26.994Z,1015.92
2018-11-13T01:50:26.963Z,1015.93
2018-11-13T01:51:26.933Z,1015.94
2018-11-13T01:52:26.904Z,1015.94
2018-11-13T01:53:26.880Z,1015.95
2018-11-13T01:54:26.918Z,1015.90
2018-11-13T01:55:26.819Z,1015.87
2018-11-13T01:56:26.792Z,1015.83
2018-11-13T01:57:26.851Z,1015.82
2018-11-13T01:58:26.733Z,1015.88
2018-11-13T01:59:26.704Z,1015.81
2018-11-13T02:00:26.678Z,1015.95
2018-11-13T02:01:26.647Z,1015.95
2018-11-13T02:02:26.618Z,1016.01
2018-11-13T02:03:26.589Z,1016.03
2018-11-13T02:04:26.561Z,1015.94
2018-11-13T02:05:26.535Z,1015.98
2018-11-13T02:06:26.505Z,1016.02
2018-11-13T02:07:26.477Z,1016.01
2018-11-13T02:08:26.445Z,1015.99
2018-11-13T02:09:26.417Z,1016.03
2018-11-13T02:10:26.387Z,1016.01
2018-11-13T02:11:26.358Z,1016.02
2018-11-13T02:12:26.335Z,1015.98
2018-11-13T02:13:26.301Z,1015.95
2018-11-13T02:14:26.273Z,1015.84
2018-11-13T02:15:26.243Z,1015.87
2018-11-13T02:16:26.214Z,1015.86
2018-11-13T02:17:26.186Z,1015.86
2018-11-13T02:18:26.157Z,1015.94
2018-11-13T02:19:26.127Z,1015.88
2018-11-13T02:20:26.103Z,1015.87
2018-11-13T02:21:26.071Z,1015.76
2018-11-13T02:22:26.045Z,1015.76
2018-11-13T02:23:26.016Z,1015.69
2018-11-13T02:24:25.985Z,1015.70
2018-11-13T02:25:25.956Z,1015.64
2018-11-13T02:26:25.927Z,1015.69
2018-11-13T02:27:25.901Z,1015.62
2018-11-13T02:28:25.869Z,1015.60
2018-11-13T02:29:25.840Z,1015.54
2018-11-13T02:30:25.812Z,1015.53
2018-11-13T02:31:25.783Z,1015.61
2018-11-13T02:32:25.755Z,1015.63
2018-11-13T02:33:25.726Z,1015.71
2018-11-13T02:34:25.697Z,1015.60
2018-11-13T02:35:25.703Z,1015.69
2018-11-13T02:36:25.641Z,1015.66
2018-11-13T02:37:25.611Z,1015.69
2018-11-13T02:38:25.582Z,1015.73
2018-11-13T02:39:25.554Z,1015.65
2018-11-13T02:40:25.525Z,1015.60
2018-11-13T02:41:25.496Z,1015.55
2018-11-13T02:42:25.467Z,1015.57
2018-11-13T02:43:25.436Z,1015.60
2018-11-13T02:44:25.409Z,1015.59
2018-11-13T02:45:25.381Z,1015.59
2018-11-13T02:46:25.352Z,1015.62
2018-11-13T02:47:25.323Z,1015.61
2018-11-13T02:48:25.293Z,1015.60
2018-11-13T02:49:25.269Z,1015.59
2018-11-13T02:50:25.240Z,1015.64
2018-11-13T02:51:25.210Z,1015.64
2018-11-13T02:52:25.184Z,1015.66
2018-11-13T02:53:25.150Z,1015.67
2018-11-13T02:54:25.122Z,1015.67
2018-11-13T02:55:25.092Z,1015.66
2018-11-13T02:56:25.064Z,1015.68
2018-11-13T02:57:25.035Z,1015.64
2018-11-13T02:58:25.007Z,1015.72
2018-11-13T02:59:24.982Z,1015.65
2018-11-13T03:00:24.948Z,1015.66
2018-11-13T03:01:24.922Z,1015.59
2018-11-13T03:02:24.896Z,1015.59
2018-11-13T03:03:24.863Z,1015.60
2018-11-13T03:04:24.839Z,1015.62
2018-11-13T03:05:24.804Z,1015.65
2018-11-13T03:06:24.777Z,1015.67
2018-11-13T03:07:24.823Z,1015.66
2018-11-13T03:08:24.719Z,1015.66
2018-11-13T03:09:24.695Z,1015.75
2018-11-13T03:10:24.662Z,1015.77
2018-11-13T03:11:24.634Z,1015.80
2018-11-13T03:12:24.604Z,1015.80
2018-11-13T03:13:24.575Z,1015.76
2018-11-13T03:14:24.564Z,1015.74
2018-11-13T03:15:24.517Z,1015.74
2018-11-13T03:16:24.488Z,1015.73
2018-11-13T03:17:24.460Z,1015.78
2018-11-13T03:18:24.436Z,1015.78
2018-11-13T03:19:24.402Z,1015.68
2018-11-13T03:20:24.374Z,1015.72
2018-11-13T03:21:24.344Z,1015.74
2018-11-13T03:22:24.316Z,1015.74
2018-11-13T03:23:24.437Z,1015.73
2018-11-13T03:24:24.259Z,1015.80
2018-11-13T03:25:24.231Z,1015.82
2018-11-13T03:26:24.201Z,1015.83
2018-11-13T03:27:24.170Z,1015.83
2018-11-13T03:28:24.189Z,1015.83
2018-11-13T03:29:24.114Z,1015.75
2018-11-13T03:30:24.087Z,1015.70
2018-11-13T03:31:24.131Z,1015.67
2018-11-13T03:32:24.029Z,1015.62
2018-11-13T03:33:24.000Z,1015.66
2018-11-13T03:34:23.970Z,1015.65
2018-11-13T03:35:23.962Z,1015.62
2018-11-13T03:36:23.913Z,1015.63
2018-11-13T03:37:23.884Z,1015.60
2018-11-13T03:38:23.856Z,1015.64
2018-11-13T03:39:23.829Z,1015.65
2018-11-13T03:40:23.801Z,1015.66
2018-11-13T03:41:23.769Z,1015.63
2018-11-13T03:42:23.742Z,1015.62
2018-11-13T03:43:23.712Z,1015.62
2018-11-13T03:44:23.684Z,1015.65
2018-11-13T03:45:23.653Z,1015.67
2018-11-13T03:46:23.881Z,1015.65
2018-11-13T03:47:23.597Z,1015.63
2018-11-13T03:48:23.569Z,1015.60
2018-11-13T03:49:23.539Z,1015.59
2018-11-13T03:50:23.513Z,1015.46
2018-11-13T03:51:23.481Z,1015.51
2018-11-13T03:52:23.453Z,1015.51
2018-11-13T03:53:23.428Z,1015.51
2018-11-13T03:54:23.396Z,1015.48
2018-11-13T03:55:23.367Z,1015.40
2018-11-13T03:56:23.341Z,1015.44
2018-11-13T03:57:23.309Z,1015.35
2018-11-13T03:58:23.281Z,1015.36
2018-11-13T03:59:23.251Z,1015.34
2018-11-13T04:00:23.223Z,1015.38
2018-11-13T04:01:23.195Z,1015.40
2018-11-13T04:02:23.169Z,1015.43
2018-11-13T04:03:23.140Z,1015.55
2018-11-13T04:04:23.110Z,1015.60
2018-11-13T04:05:23.079Z,1015.57
2018-11-13T04:06:23.051Z,1015.63
2018-11-13T04:07:23.026Z,1015.59
2018-11-13T04:08:22.991Z,1015.54
2018-11-13T04:09:22.964Z,1015.52
2018-11-13T04:10:22.942Z,1015.54
2018-11-13T04:11:22.912Z,1015.51
2018-11-13T04:12:22.878Z,1015.59
2018-11-13T04:13:22.849Z,1015.63
2018-11-13T04:14:22.823Z,1015.65
2018-11-13T04:15:22.792Z,1015.76
2018-11-13T04:16:22.762Z,1015.78
2018-11-13T04:17:22.736Z,1015.81
2018-11-13T04:18:22.707Z,1015.82
2018-11-13T04:19:22.676Z,1015.83
2018-11-13T04:20:22.654Z,1015.81
2018-11-13T04:21:22.620Z,1015.78
2018-11-13T04:22:22.594Z,1015.81
2018-11-13T04:23:22.561Z,1015.89
2018-11-13T04:24:22.532Z,1015.87
2018-11-13T04:25:22.507Z,1015.88
2018-11-13T04:26:22.475Z,1015.82
2018-11-13T04:27:22.445Z,1015.84
2018-11-13T04:28:22.417Z,1015.88
2018-11-13T04:29:22.390Z,1015.84
2018-11-13T04:30:22.360Z,1015.87
2018-11-13T04:31:22.331Z,1015.85
2018-11-13T04:32:22.304Z,1015.81
2018-11-13T04:33:22.275Z,1015.79
2018-11-13T04:34:22.247Z,1015.80
2018-11-13T04:35:22.216Z,1015.80
2018-11-13T04:36:22.186Z,1015.80
2018-11-13T04:37:22.157Z,1015.86
2018-11-13T04:38:22.128Z,1015.89
2018-11-13T04:40:04.449Z,1015.86
2018-11-13T04:41:04.226Z,1015.83
2018-11-13T04:42:04.192Z,1015.80
2018-11-13T04:43:04.160Z,1015.75
2018-11-13T04:44:04.131Z,1015.76
2018-11-13T04:45:04.106Z,1015.75
2018-11-13T04:46:04.072Z,1015.76
2018-11-13T04:47:04.043Z,1015.71
2018-11-13T04:48:04.023Z,1015.72
2018-11-13T04:49:03.986Z,1015.76
2018-11-13T04:50:03.972Z,1015.82
2018-11-13T04:51:46.331Z,1015.85
2018-11-13T04:52:46.046Z,1015.80
2018-11-13T04:53:46.018Z,1015.77
2018-11-13T04:54:45.988Z,1015.77
2018-11-13T04:55:46.003Z,1015.78
2018-11-13T04:56:45.935Z,1015.81
2018-11-13T04:57:45.912Z,1015.83
2018-11-13T04:58:45.876Z,1015.87
2018-11-13T04:59:45.844Z,1015.84
2018-11-13T05:00:45.815Z,1015.84
2018-11-13T05:01:45.786Z,1015.79
2018-11-13T05:02:45.812Z,1015.80
2018-11-13T05:03:45.732Z,1015.87
2018-11-13T05:04:45.700Z,1015.84
2018-11-13T05:05:45.672Z,1015.92
2018-11-13T05:06:45.639Z,1015.92
2018-11-13T05:07:45.612Z,1015.97
2018-11-13T05:08:45.582Z,1015.98
2018-11-13T05:09:45.553Z,1015.98
2018-11-13T05:10:45.527Z,1016.02
2018-11-13T05:11:45.495Z,1016.10
2018-11-13T05:12:45.467Z,1016.12
2018-11-13T05:13:45.437Z,1016.07
2018-11-13T05:14:45.408Z,1016.10
2018-11-13T05:15:45.379Z,1016.06
2018-11-13T05:16:45.350Z,1016.13
2018-11-13T05:17:45.336Z,1016.13
2018-11-13T05:18:45.293Z,1016.18
2018-11-13T05:19:45.268Z,1016.22
2018-11-13T05:20:45.234Z,1016.23
2018-11-13T05:21:45.245Z,1016.22
2018-11-13T05:22:45.176Z,1016.24
2018-11-13T05:23:45.151Z,1016.22
2018-11-13T05:24:45.121Z,1016.21
2018-11-13T05:25:45.090Z,1016.20
2018-11-13T05:26:45.064Z,1016.21
2018-11-13T05:27:45.031Z,1016.23
2018-11-13T05:28:45.000Z,1016.25
2018-11-13T05:29:44.972Z,1016.30
2018-11-13T05:30:44.949Z,1016.34
2018-11-13T05:31:44.917Z,1016.38
2018-11-13T05:32:44.903Z,1016.36
2018-11-13T05:33:44.858Z,1016.34
2018-11-13T05:34:44.832Z,1016.32
2018-11-13T05:35:44.799Z,1016.33
2018-11-13T05:36:44.771Z,1016.29
2018-11-13T05:37:44.741Z,1016.32
2018-11-13T05:38:44.714Z,1016.35
2018-11-13T05:39:44.685Z,1016.39
2018-11-13T05:40:44.654Z,1016.35
2018-11-13T05:41:44.679Z,1016.31
2018-11-13T05:42:44.596Z,1016.32
2018-11-13T05:43:44.568Z,1016.31
2018-11-13T05:44:44.544Z,1016.28
2018-11-13T05:45:44.509Z,1016.26
2018-11-13T05:46:44.480Z,1016.32
2018-11-13T05:47:44.455Z,1016.27
2018-11-13T05:48:44.423Z,1016.32
2018-11-13T05:49:44.393Z,1016.35
2018-11-13T05:50:44.365Z,1016.32
2018-11-13T05:51:44.336Z,1016.30
2018-11-13T05:52:44.310Z,1016.30
2018-11-13T05:53:44.278Z,1016.34
2018-11-13T05:54:44.251Z,1016.43
2018-11-13T05:55:44.225Z,1016.38
2018-11-13T05:56:44.191Z,1016.38
2018-11-13T05:57:44.164Z,1016.37
2018-11-13T05:58:44.134Z,1016.39
2018-11-13T05:59:44.138Z,1016.39
2018-11-13T06:00:44.079Z,1016.41
2018-11-13T06:01:44.051Z,1016.44
2018-11-13T06:02:44.024Z,1016.39
2018-11-13T06:03:43.998Z,1016.39
2018-11-13T06:04:43.962Z,1016.34
2018-11-13T06:05:43.933Z,1016.28
2018-11-13T06:06:43.910Z,1016.31
2018-11-13T06:07:43.878Z,1016.34
2018-11-13T06:08:43.967Z,1016.34
2018-11-13T06:09:43.818Z,1016.36
2018-11-13T06:10:43.790Z,1016.38
2018-11-13T06:11:43.770Z,1016.31
2018-11-13T06:12:43.733Z,1016.26
2018-11-13T06:13:43.704Z,1016.22
2018-11-13T06:14:43.677Z,1016.19
2018-11-13T06:15:43.647Z,1016.18
2018-11-13T06:16:43.622Z,1016.18
2018-11-13T06:17:43.592Z,1016.20
2018-11-13T06:18:43.562Z,1016.19
2018-11-13T06:19:43.532Z,1016.14
2018-11-13T06:20:43.503Z,1016.18
2018-11-13T06:21:43.480Z,1016.17
2018-11-13T06:22:43.448Z,1016.17
2018-11-13T06:23:43.418Z,1016.23
2018-11-13T06:24:43.388Z,1016.20
2018-11-13T06:25:43.360Z,1016.24
2018-11-13T06:26:43.331Z,1016.24
2018-11-13T06:27:43.302Z,1016.18
2018-11-13T06:28:43.273Z,1016.21
2018-11-13T06:29:43.376Z,1016.23
2018-11-13T06:30:43.220Z,1016.22
2018-11-13T06:31:43.190Z,1016.23
2018-11-13T06:32:43.159Z,1016.28
2018-11-13T06:33:43.129Z,1016.29
2018-11-13T06:34:43.102Z,1016.32
2018-11-13T06:35:43.074Z,1016.41
2018-11-13T06:36:43.042Z,1016.39
2018-11-13T06:37:43.018Z,1016.38
2018-11-13T06:38:43.051Z,1016.31
2018-11-13T06:39:42.959Z,1016.44
2018-11-13T06:40:42.929Z,1016.37
2018-11-13T06:41:42.900Z,1016.31
2018-11-13T06:42:42.873Z,1016.24
2018-11-13T06:43:42.844Z,1016.27
2018-11-13T06:44:42.813Z,1016.26
2018-11-13T06:45:42.788Z,1016.32
2018-11-13T06:46:42.758Z,1016.29
2018-11-13T06:47:42.736Z,1016.29
2018-11-13T06:48:42.702Z,1016.31
2018-11-13T06:49:42.840Z,1016.34
2018-11-13T06:50:42.645Z,1016.31
2018-11-13T06:51:42.616Z,1016.34
2018-11-13T06:52:42.586Z,1016.47
2018-11-13T06:53:42.573Z,1016.51
2018-11-13T06:54:42.530Z,1016.49
2018-11-13T06:55:42.501Z,1016.48
2018-11-13T06:56:42.472Z,1016.57
2018-11-13T06:57:42.444Z,1016.57
2018-11-13T06:58:42.414Z,1016.51
2018-11-13T06:59:42.392Z,1016.45
2018-11-13T07:00:42.358Z,1016.42
2018-11-13T07:01:42.329Z,1016.51
2018-11-13T07:02:42.301Z,1016.45
2018-11-13T07:03:42.273Z,1016.34
2018-11-13T07:04:42.244Z,1016.45
2018-11-13T07:05:42.215Z,1016.49
2018-11-13T07:06:42.197Z,1016.49
2018-11-13T07:07:42.159Z,1016.43
2018-11-13T07:08:42.129Z,1016.50
2018-11-13T07:09:42.103Z,1016.57
2018-11-13T07:10:42.149Z,1016.55
2018-11-13T07:11:42.043Z,1016.56
2018-11-13T07:12:42.023Z,1016.57
2018-11-13T07:13:41.991Z,1016.54
2018-11-13T07:14:41.959Z,1016.57
2018-11-13T07:15:41.931Z,1016.57
2018-11-13T07:16:41.901Z,1016.63
2018-11-13T07:17:41.874Z,1016.64
2018-11-13T07:18:41.845Z,1016.57
2018-11-13T07:19:41.816Z,1016.53
2018-11-13T07:20:41.786Z,1016.56
2018-11-13T07:21:41.759Z,1016.52
2018-11-13T07:22:41.731Z,1016.54
2018-11-13T07:23:41.702Z,1016.54
2018-11-13T07:24:41.675Z,1016.52
2018-11-13T07:25:41.644Z,1016.48
2018-11-13T07:26:41.617Z,1016.50
2018-11-13T07:27:41.785Z,1016.57
2018-11-13T07:28:41.558Z,1016.55
2018-11-13T07:29:41.531Z,1016.54
2018-11-13T07:30:41.502Z,1016.53
2018-11-13T07:31:41.489Z,1016.55
2018-11-13T07:32:41.447Z,1016.55
2018-11-13T07:33:41.439Z,1016.50
2018-11-13T07:34:41.388Z,1016.53
2018-11-13T07:35:41.360Z,1016.44
2018-11-13T07:36:41.330Z,1016.39
2018-11-13T07:37:41.303Z,1016.44
2018-11-13T07:38:41.275Z,1016.39
2018-11-13T07:39:41.246Z,1016.36
2018-11-13T07:40:41.217Z,1016.46
2018-11-13T07:41:41.190Z,1016.43
2018-11-13T07:42:41.161Z,1016.48
2018-11-13T07:43:41.136Z,1016.53
2018-11-13T07:44:41.104Z,1016.51
2018-11-13T07:45:41.075Z,1016.50
2018-11-13T07:46:41.059Z,1016.60
2018-11-13T07:47:41.204Z,1016.59
2018-11-13T07:48:40.992Z,1016.54
2018-11-13T07:49:40.961Z,1016.58
2018-11-13T07:50:40.939Z,1016.57
2018-11-13T07:51:40.905Z,1016.57
2018-11-13T07:52:40.874Z,1016.52
2018-11-13T07:53:40.854Z,1016.56
2018-11-13T07:54:40.820Z,1016.57
2018-11-13T07:55:40.791Z,1016.54
2018-11-13T07:56:40.762Z,1016.59
2018-11-13T07:57:40.735Z,1016.57
2018-11-13T07:58:40.709Z,1016.50
2018-11-13T07:59:40.678Z,1016.49
2018-11-13T08:00:40.653Z,1016.52
2018-11-13T08:01:40.621Z,1016.49
2018-11-13T08:02:40.593Z,1016.58
2018-11-13T08:03:40.628Z,1016.54
2018-11-13T08:04:40.534Z,1016.58
2018-11-13T08:05:40.510Z,1016.59
2018-11-13T08:06:40.525Z,1016.62
2018-11-13T08:07:40.452Z,1016.64
2018-11-13T08:08:40.422Z,1016.64
2018-11-13T08:09:40.393Z,1016.62
2018-11-13T08:10:40.370Z,1016.60
2018-11-13T08:11:40.343Z,1016.58
2018-11-13T08:12:40.373Z,1016.57
2018-11-13T08:13:40.389Z,1016.61
2018-11-13T08:14:40.253Z,1016.53
2018-11-13T08:15:40.349Z,1016.59
2018-11-13T08:16:40.197Z,1016.46
2018-11-13T08:17:40.168Z,1016.47
2018-11-13T08:18:40.143Z,1016.54
2018-11-13T08:19:40.114Z,1016.55
2018-11-13T08:20:40.084Z,1016.53
2018-11-13T08:21:40.056Z,1016.55
2018-11-13T08:22:40.035Z,1016.55
2018-11-13T08:23:40.001Z,1016.54
2018-11-13T08:24:39.973Z,1016.59
2018-11-13T08:25:40.008Z,1016.54
2018-11-13T08:26:39.916Z,1016.51
2018-11-13T08:27:39.893Z,1016.55
2018-11-13T08:28:39.913Z,1016.53
2018-11-13T08:29:39.904Z,1016.58
2018-11-13T08:30:39.803Z,1016.62
2018-11-13T08:31:39.778Z,1016.71
2018-11-13T08:32:39.749Z,1016.50
2018-11-13T08:33:39.719Z,1016.45
2018-11-13T08:34:39.726Z,1016.55
2018-11-13T08:35:39.691Z,1016.54
2018-11-13T08:36:39.633Z,1016.49
2018-11-13T08:37:39.607Z,1016.43
2018-11-13T08:38:39.579Z,1016.51
2018-11-13T08:39:39.552Z,1016.42
2018-11-13T08:40:39.523Z,1016.41
2018-11-13T08:41:39.495Z,1016.41
2018-11-13T08:42:39.471Z,1016.44
2018-11-13T08:43:39.482Z,1016.40
2018-11-13T08:44:39.412Z,1016.38
2018-11-13T08:45:39.384Z,1016.40
2018-11-13T08:46:39.356Z,1016.44
2018-11-13T08:47:39.336Z,1016.41
2018-11-13T08:48:39.300Z,1016.41
2018-11-13T08:49:39.285Z,1016.41
2018-11-13T08:50:39.447Z,1016.42
2018-11-13T08:51:39.224Z,1016.56
2018-11-13T08:52:39.189Z,1016.67
2018-11-13T08:53:39.164Z,1016.67
2018-11-13T08:54:39.133Z,1016.68
2018-11-13T08:55:39.108Z,1016.57
2018-11-13T08:56:39.078Z,1016.57
2018-11-13T08:57:39.051Z,1016.63
2018-11-13T08:58:39.078Z,1016.63
2018-11-13T08:59:39.050Z,1016.65
2018-11-13T09:00:38.967Z,1016.65
2018-11-13T09:01:38.940Z,1016.74
2018-11-13T09:02:38.925Z,1016.56
2018-11-13T09:03:38.893Z,1016.73
2018-11-13T09:04:38.857Z,1016.70
2018-11-13T09:05:38.835Z,1016.98
2018-11-13T09:06:38.803Z,1016.92
2018-11-13T09:07:38.785Z,1017.10
2018-11-13T09:08:38.754Z,1017.05
2018-11-13T09:09:38.722Z,1017.12
2018-11-13T09:10:38.856Z,1016.97
2018-11-13T09:11:38.801Z,1016.85
2018-11-13T09:12:38.639Z,1017.01
2018-11-13T09:13:38.611Z,1017.10
2018-11-13T09:14:38.585Z,1017.37
2018-11-13T09:15:38.764Z,1016.84
2018-11-13T09:16:38.530Z,1017.51
2018-11-13T09:17:38.503Z,1017.09
2018-11-13T09:18:38.480Z,1016.93
2018-11-13T09:19:38.720Z,1017.53
2018-11-13T09:20:38.421Z,1016.61
2018-11-13T09:21:38.412Z,1017.15
2018-11-13T09:22:38.421Z,1016.71
2018-11-13T09:23:38.341Z,1016.73
2018-11-13T09:24:38.316Z,1016.72
2018-11-13T09:25:38.290Z,1017.16
2018-11-13T09:26:38.264Z,1017.22
2018-11-13T09:27:38.234Z,1016.94
2018-11-13T09:28:38.206Z,1016.98
2018-11-13T09:29:38.180Z,1016.58
2018-11-13T09:30:38.357Z,1017.00
2018-11-13T09:31:38.154Z,1016.72
2018-11-13T09:32:38.108Z,1017.21
2018-11-13T09:33:38.088Z,1017.06
2018-11-13T09:34:38.048Z,1017.24
2018-11-13T09:35:38.018Z,1017.09
2018-11-13T09:36:37.990Z,1017.21
2018-11-13T09:37:38.067Z,1017.06
2018-11-13T09:38:37.939Z,1017.03
2018-11-13T09:39:37.908Z,1017.10
2018-11-13T09:40:37.898Z,1017.30
2018-11-13T09:41:37.866Z,1017.06
2018-11-13T09:42:37.830Z,1017.30
2018-11-13T09:43:37.801Z,1017.10
2018-11-13T09:44:37.775Z,1016.96
2018-11-13T09:45:37.748Z,1016.96
2018-11-13T09:46:37.763Z,1016.99
2018-11-13T09:47:37.769Z,1017.03
2018-11-13T09:48:37.677Z,1017.02
2018-11-13T09:49:37.642Z,1017.06
2018-11-13T09:50:37.629Z,1017.25
2018-11-13T09:51:37.584Z,1017.27
2018-11-13T09:52:37.564Z,1017.05
2018-11-13T09:53:37.574Z,1017.32
2018-11-13T09:54:37.504Z,1016.99
2018-11-13T09:55:37.477Z,1016.35
2018-11-13T09:56:37.571Z,1017.11
2018-11-13T09:57:37.445Z,1017.17
2018-11-13T09:58:37.464Z,1017.22
2018-11-13T09:59:37.366Z,1017.29
2018-11-13T10:00:37.561Z,1017.25
2018-11-13T10:01:37.613Z,1017.11
2018-11-13T10:02:37.965Z,1017.20
2018-11-13T10:03:37.964Z,1016.79
2018-11-13T10:04:37.942Z,1017.18
2018-11-13T10:05:37.398Z,1016.58
2018-11-13T10:06:37.185Z,1017.19
2018-11-13T10:07:37.147Z,1017.57
2018-11-13T10:08:37.127Z,1017.27
2018-11-13T10:09:37.092Z,1017.34
2018-11-13T10:10:37.084Z,1017.43
2018-11-13T10:11:37.038Z,1017.26
2018-11-13T10:12:37.011Z,1016.86
2018-11-13T10:13:36.985Z,1017.21
2018-11-13T10:14:36.955Z,1016.87
2018-11-13T10:15:36.929Z,1016.93
2018-11-13T10:16:36.904Z,1016.93
2018-11-13T10:17:36.936Z,1016.79
2018-11-13T10:18:36.845Z,1017.24
2018-11-13T10:19:36.823Z,1017.08
2018-11-13T10:20:36.798Z,1016.71
2018-11-13T10:21:36.766Z,1017.19
2018-11-13T10:22:36.737Z,1016.78
2018-11-13T10:23:36.712Z,1016.95
2018-11-13T10:24:36.683Z,1017.19
2018-11-13T10:25:36.653Z,1017.24
2018-11-13T10:26:36.735Z,1016.89
2018-11-13T10:27:36.659Z,1017.10
2018-11-13T10:28:36.573Z,1017.11
2018-11-13T10:29:36.543Z,1017.16
2018-11-13T10:32:36.461Z,1017.10
2018-11-13T10:33:36.434Z,1016.72
2018-11-13T10:34:36.406Z,1017.17
2018-11-13T10:35:36.381Z,1017.02
2018-11-13T10:36:36.354Z,1017.09
2018-11-13T10:37:36.324Z,1017.20
2018-11-13T10:38:36.323Z,1016.32
2018-11-13T10:39:36.267Z,1017.46
2018-11-13T10:40:36.305Z,1017.20
2018-11-13T10:41:36.270Z,1017.06
2018-11-13T10:42:36.186Z,1016.82
2018-11-13T10:43:36.159Z,1017.19
2018-11-13T10:44:36.132Z,1017.18
2018-11-13T10:45:36.114Z,1016.96
2018-11-13T10:46:36.080Z,1017.08
2018-11-13T10:47:36.048Z,1017.09
2018-11-13T10:48:36.020Z,1016.97
2018-11-13T10:49:35.998Z,1017.27
2018-11-13T10:50:35.966Z,1017.13
2018-11-13T10:51:35.938Z,1017.22
2018-11-13T10:52:35.909Z,1017.32
2018-11-13T10:53:35.885Z,1017.37
2018-11-13T10:54:35.855Z,1017.35
2018-11-13T10:55:35.831Z,1017.52
2018-11-13T10:56:35.832Z,1016.98
2018-11-13T10:57:35.779Z,1017.42
2018-11-13T10:58:35.743Z,1018.13
2018-11-13T10:59:35.717Z,1017.65
2018-11-13T11:00:35.689Z,1017.76
2018-11-13T11:01:35.666Z,1017.66
2018-11-13T11:02:35.752Z,1017.35
2018-11-13T11:03:35.608Z,1017.43
2018-11-13T11:04:35.625Z,1017.56
2018-11-13T11:05:35.562Z,1017.33
2018-11-13T11:06:35.533Z,1017.36
2018-11-13T11:07:35.498Z,1017.42
2018-11-13T11:08:35.470Z,1017.30
2018-11-13T11:09:35.443Z,1017.10
2018-11-13T11:10:35.416Z,1017.26
2018-11-13T11:11:35.534Z,1017.27
2018-11-13T11:12:35.406Z,1017.21
2018-11-13T11:13:35.490Z,1017.36
2018-11-13T11:14:35.334Z,1017.23
2018-11-13T11:15:35.283Z,1017.37
2018-11-13T11:16:35.255Z,1017.40
2018-11-13T11:17:35.229Z,1017.22
2018-11-13T11:18:35.246Z,1017.46
2018-11-13T11:19:35.279Z,1017.37
2018-11-13T11:20:35.144Z,1017.33
2018-11-13T11:21:35.118Z,1017.15
2018-11-13T11:22:35.139Z,1017.46
2018-11-13T11:23:35.277Z,1017.41
2018-11-13T11:24:35.034Z,1017.47
2018-11-13T11:25:35.007Z,1017.31
2018-11-13T11:26:34.998Z,1017.53
2018-11-13T11:27:34.955Z,1017.53
2018-11-13T11:28:34.932Z,1017.51
2018-11-13T11:29:34.906Z,1017.52
2018-11-13T11:30:34.870Z,1017.42
2018-11-13T11:31:34.843Z,1017.33
2018-11-13T11:32:34.812Z,1017.47
2018-11-13T11:33:34.792Z,1017.26
2018-11-13T11:34:34.964Z,1017.56
2018-11-13T11:35:34.732Z,1017.62
2018-11-13T11:36:34.701Z,1017.49
2018-11-13T11:37:34.680Z,1017.49
2018-11-13T11:38:34.664Z,1017.51
2018-11-13T11:39:34.618Z,1017.61
2018-11-13T11:40:34.594Z,1017.56
2018-11-13T11:41:34.572Z,1017.57
2018-11-13T11:42:34.537Z,1017.55
2018-11-13T11:43:34.512Z,1017.44
2018-11-13T11:44:34.632Z,1017.49
2018-11-13T11:45:34.455Z,1017.48
2018-11-13T11:46:34.426Z,1017.48
2018-11-13T11:47:34.398Z,1017.49
2018-11-13T11:48:34.371Z,1017.50
2018-11-13T11:49:34.342Z,1017.46
2018-11-13T11:50:34.318Z,1017.60
2018-11-13T11:51:34.288Z,1017.57
2018-11-13T11:52:34.260Z,1017.53
2018-11-13T11:53:34.239Z,1017.34
2018-11-13T11:54:34.206Z,1017.52
2018-11-13T11:55:34.182Z,1017.54
2018-11-13T11:56:34.158Z,1017.50
2018-11-13T11:57:34.123Z,1017.50
2018-11-13T11:58:34.098Z,1017.41
2018-11-13T11:59:34.071Z,1017.42
2018-11-13T12:00:34.116Z,1016.94
2018-11-13T12:01:34.036Z,1017.39
2018-11-13T12:02:33.990Z,1017.40
2018-11-13T12:03:33.961Z,1017.51
2018-11-13T12:04:33.935Z,1017.28
2018-11-13T12:05:33.906Z,1017.38
2018-11-13T12:06:33.880Z,1017.33
2018-11-13T12:07:33.851Z,1017.20
2018-11-13T12:08:33.823Z,1017.34